sensor_id;sensor_type;location;lat;lon;timestamp;temperature;humidity
28614;DHT22;15806;53.548;9.964;2022-12-10T00:00:04;11.60;99.90
28614;DHT22;15806;53.548;9.964;2022-12-10T00:01:45;11.60;99.90
28614;DHT22;15806;53.548;9.964;2022-12-10T00:03:26;11.60;99.90
28614;DHT22;15806;53.548;9.964;2022-12-10T00:05:06;11.60;99.90
28614;DHT22;15806;53.548;9.964;2022-12-10T00:06:47;11.70;99.90
28614;DHT22;15806;53.548;9.964;2022-12-10T00:08:28;11.70;99.90
28614;DHT22;15806;53.548;9.964;2022-12-10T00:10:09;11.60;99.90
28614;DHT22;15806;53.548;9.964;2022-12-10T00:11:49;11.60;99.90
28614;DHT22;15806;53.548;9.964;2022-12-10T00:13:30;11.60;99.90
28614;DHT22;15806;53.548;9.964;2022-12-10T00:15:11;11.60;99.90
28614;DHT22;15806;53.548;9.964;2022-12-10T00:16:51;11.60;99.90
28614;DHT22;15806;53.548;9.964;2022-12-10T00:18:33;11.70;99.90
28614;DHT22;15806;53.548;9.964;2022-12-10T00:20:13;11.80;99.90
28614;DHT22;15806;53.548;9.964;2022-12-10T00:21:54;11.80;99.90
28614;DHT22;15806;53.548;9.964;2022-12-10T00:23:35;11.90;99.90
28614;DHT22;15806;53.548;9.964;2022-12-10T00:25:16;11.90;99.90
28614;DHT22;15806;53.548;9.964;2022-12-10T00:26:57;11.90;99.90
28614;DHT22;15806;53.548;9.964;2022-12-10T00:28:38;12.00;99.90
28614;DHT22;15806;53.548;9.964;2022-12-10T00:30:19;12.10;99.90
28614;DHT22;15806;53.548;9.964;2022-12-10T00:32:00;12.00;99.90
28614;DHT22;15806;53.548;9.964;2022-12-10T00:33:41;12.10;99.90
28614;DHT22;15806;53.548;9.964;2022-12-10T00:35:22;12.10;99.90
28614;DHT22;15806;53.548;9.964;2022-12-10T00:37:02;12.10;99.90
28614;DHT22;15806;53.548;9.964;2022-12-10T00:38:43;12.20;99.90
28614;DHT22;15806;53.548;9.964;2022-12-10T00:40:24;12.20;99.90
28614;DHT22;15806;53.548;9.964;2022-12-10T00:42:05;12.30;99.90
28614;DHT22;15806;53.548;9.964;2022-12-10T00:43:46;12.30;99.90
28614;DHT22;15806;53.548;9.964;2022-12-10T00:45:26;12.30;99.90
28614;DHT22;15806;53.548;9.964;2022-12-10T00:47:07;12.30;99.90
28614;DHT22;15806;53.548;9.964;2022-12-10T00:48:47;12.30;99.90
28614;DHT22;15806;53.548;9.964;2022-12-10T00:50:28;12.30;99.90
28614;DHT22;15806;53.548;9.964;2022-12-10T00:52:08;12.30;99.90
28614;DHT22;15806;53.548;9.964;2022-12-10T00:53:50;12.30;99.90
28614;DHT22;15806;53.548;9.964;2022-12-10T00:55:31;12.30;99.90
28614;DHT22;15806;53.548;9.964;2022-12-10T00:57:11;12.20;99.90
28614;DHT22;15806;53.548;9.964;2022-12-10T00:58:52;12.20;99.90
28614;DHT22;15806;53.548;9.964;2022-12-10T01:00:33;12.20;99.90
28614;DHT22;15806;53.548;9.964;2022-12-10T01:02:13;12.20;99.90
28614;DHT22;15806;53.548;9.964;2022-12-10T01:03:57;12.30;99.90
28614;DHT22;15806;53.548;9.964;2022-12-10T01:05:37;12.30;99.90
28614;DHT22;15806;53.548;9.964;2022-12-10T01:07:18;12.30;99.90
28614;DHT22;15806;53.548;9.964;2022-12-10T01:09:03;12.30;99.90
28614;DHT22;15806;53.548;9.964;2022-12-10T01:10:45;12.30;99.90
28614;DHT22;15806;53.548;9.964;2022-12-10T01:12:25;12.20;99.90
28614;DHT22;15806;53.548;9.964;2022-12-10T01:14:08;12.20;99.90
28614;DHT22;15806;53.548;9.964;2022-12-10T01:15:49;12.20;99.90
28614;DHT22;15806;53.548;9.964;2022-12-10T01:17:30;12.20;99.90
28614;DHT22;15806;53.548;9.964;2022-12-10T01:19:11;12.30;99.90
28614;DHT22;15806;53.548;9.964;2022-12-10T01:20:51;12.20;99.90
28614;DHT22;15806;53.548;9.964;2022-12-10T01:22:32;12.20;99.90
28614;DHT22;15806;53.548;9.964;2022-12-10T01:24:12;12.20;99.90
28614;DHT22;15806;53.548;9.964;2022-12-10T01:25:53;12.20;99.90
28614;DHT22;15806;53.548;9.964;2022-12-10T01:27:33;12.10;99.90
28614;DHT22;15806;53.548;9.964;2022-12-10T01:29:14;12.10;99.90
28614;DHT22;15806;53.548;9.964;2022-12-10T01:30:55;12.10;99.90
28614;DHT22;15806;53.548;9.964;2022-12-10T01:32:35;12.00;99.90
28614;DHT22;15806;53.548;9.964;2022-12-10T01:34:16;12.10;99.90
28614;DHT22;15806;53.548;9.964;2022-12-10T01:36:02;12.00;99.90
28614;DHT22;15806;53.548;9.964;2022-12-10T01:37:43;12.00;99.90
28614;DHT22;15806;53.548;9.964;2022-12-10T01:39:24;12.00;99.90
28614;DHT22;15806;53.548;9.964;2022-12-10T01:41:05;11.90;99.90
28614;DHT22;15806;53.548;9.964;2022-12-10T01:42:46;11.80;99.90
28614;DHT22;15806;53.548;9.964;2022-12-10T01:46:07;11.80;99.90
28614;DHT22;15806;53.548;9.964;2022-12-10T01:47:47;11.70;99.90
28614;DHT22;15806;53.548;9.964;2022-12-10T01:49:37;11.70;99.90
28614;DHT22;15806;53.548;9.964;2022-12-10T01:51:19;11.70;99.90
28614;DHT22;15806;53.548;9.964;2022-12-10T01:53:00;11.70;99.90
28614;DHT22;15806;53.548;9.964;2022-12-10T01:54:44;11.60;99.90
28614;DHT22;15806;53.548;9.964;2022-12-10T01:56:25;11.70;99.90
28614;DHT22;15806;53.548;9.964;2022-12-10T01:58:05;11.60;99.90
28614;DHT22;15806;53.548;9.964;2022-12-10T01:59:49;11.60;99.90
28614;DHT22;15806;53.548;9.964;2022-12-10T02:01:55;11.60;99.90
28614;DHT22;15806;53.548;9.964;2022-12-10T02:03:57;11.60;99.90
28614;DHT22;15806;53.548;9.964;2022-12-10T02:05:46;11.60;99.90
28614;DHT22;15806;53.548;9.964;2022-12-10T02:11:40;11.40;99.90
28614;DHT22;15806;53.548;9.964;2022-12-10T02:13:37;11.40;99.90
28614;DHT22;15806;53.548;9.964;2022-12-10T02:15:30;11.30;99.90
28614;DHT22;15806;53.548;9.964;2022-12-10T02:17:17;11.40;99.90
28614;DHT22;15806;53.548;9.964;2022-12-10T02:19:10;11.40;99.90
28614;DHT22;15806;53.548;9.964;2022-12-10T02:20:57;11.30;99.90
28614;DHT22;15806;53.548;9.964;2022-12-10T02:23:06;11.30;99.90
28614;DHT22;15806;53.548;9.964;2022-12-10T02:24:49;11.30;99.90
28614;DHT22;15806;53.548;9.964;2022-12-10T02:27:00;11.30;99.90
28614;DHT22;15806;53.548;9.964;2022-12-10T02:30:45;11.10;99.90
28614;DHT22;15806;53.548;9.964;2022-12-10T02:32:33;11.10;99.90
28614;DHT22;15806;53.548;9.964;2022-12-10T02:34:17;11.00;99.90
28614;DHT22;15806;53.548;9.964;2022-12-10T02:35:59;11.00;99.90
28614;DHT22;15806;53.548;9.964;2022-12-10T02:37:47;11.00;99.90
28614;DHT22;15806;53.548;9.964;2022-12-10T02:39:33;11.00;99.90
28614;DHT22;15806;53.548;9.964;2022-12-10T02:41:25;10.90;99.90
28614;DHT22;15806;53.548;9.964;2022-12-10T02:43:08;10.90;99.90
28614;DHT22;15806;53.548;9.964;2022-12-10T02:44:50;10.90;99.90
28614;DHT22;15806;53.548;9.964;2022-12-10T02:46:32;10.90;99.90
28614;DHT22;15806;53.548;9.964;2022-12-10T02:48:14;10.90;99.90
28614;DHT22;15806;53.548;9.964;2022-12-10T02:49:56;10.90;99.90
28614;DHT22;15806;53.548;9.964;2022-12-10T02:51:38;10.90;99.90
28614;DHT22;15806;53.548;9.964;2022-12-10T02:53:19;11.00;99.90
28614;DHT22;15806;53.548;9.964;2022-12-10T02:54:59;11.00;99.90
28614;DHT22;15806;53.548;9.964;2022-12-10T02:56:45;11.00;99.90
28614;DHT22;15806;53.548;9.964;2022-12-10T02:58:40;10.90;99.90
28614;DHT22;15806;53.548;9.964;2022-12-10T03:00:24;11.00;99.90
28614;DHT22;15806;53.548;9.964;2022-12-10T03:04:03;10.80;99.90
28614;DHT22;15806;53.548;9.964;2022-12-10T03:06:15;10.50;99.90
28614;DHT22;15806;53.548;9.964;2022-12-10T03:08:14;10.50;99.90
28614;DHT22;15806;53.548;9.964;2022-12-10T03:10:04;10.50;99.90
28614;DHT22;15806;53.548;9.964;2022-12-10T03:11:49;10.50;99.90
28614;DHT22;15806;53.548;9.964;2022-12-10T03:13:37;10.50;99.90
28614;DHT22;15806;53.548;9.964;2022-12-10T03:15:20;10.40;99.90
28614;DHT22;15806;53.548;9.964;2022-12-10T03:17:03;10.40;99.90
28614;DHT22;15806;53.548;9.964;2022-12-10T03:18:46;10.30;99.90
28614;DHT22;15806;53.548;9.964;2022-12-10T03:20:32;10.30;99.90
28614;DHT22;15806;53.548;9.964;2022-12-10T03:22:17;10.40;99.90
28614;DHT22;15806;53.548;9.964;2022-12-10T03:23:59;10.40;99.90
28614;DHT22;15806;53.548;9.964;2022-12-10T03:25:40;10.50;99.90
28614;DHT22;15806;53.548;9.964;2022-12-10T03:27:22;10.50;99.90
28614;DHT22;15806;53.548;9.964;2022-12-10T03:29:06;10.40;99.90
28614;DHT22;15806;53.548;9.964;2022-12-10T03:30:51;10.40;99.90
28614;DHT22;15806;53.548;9.964;2022-12-10T03:32:36;10.40;99.90
28614;DHT22;15806;53.548;9.964;2022-12-10T03:34:17;10.30;99.90
28614;DHT22;15806;53.548;9.964;2022-12-10T03:36:03;10.30;99.90
28614;DHT22;15806;53.548;9.964;2022-12-10T03:37:45;10.30;99.90
28614;DHT22;15806;53.548;9.964;2022-12-10T03:39:29;10.10;99.90
28614;DHT22;15806;53.548;9.964;2022-12-10T03:41:10;10.10;99.90
28614;DHT22;15806;53.548;9.964;2022-12-10T03:42:51;10.00;99.90
28614;DHT22;15806;53.548;9.964;2022-12-10T03:44:36;9.90;99.90
28614;DHT22;15806;53.548;9.964;2022-12-10T03:46:17;9.80;99.90
28614;DHT22;15806;53.548;9.964;2022-12-10T03:47:57;9.60;99.90
28614;DHT22;15806;53.548;9.964;2022-12-10T03:49:38;9.60;99.90
28614;DHT22;15806;53.548;9.964;2022-12-10T03:51:19;9.50;99.90
28614;DHT22;15806;53.548;9.964;2022-12-10T03:53:00;9.30;99.90
28614;DHT22;15806;53.548;9.964;2022-12-10T03:54:40;9.10;99.90
28614;DHT22;15806;53.548;9.964;2022-12-10T03:56:21;8.90;99.90
28614;DHT22;15806;53.548;9.964;2022-12-10T03:58:02;8.70;99.90
28614;DHT22;15806;53.548;9.964;2022-12-10T03:59:43;8.70;99.90
28614;DHT22;15806;53.548;9.964;2022-12-10T04:01:23;8.50;99.90
28614;DHT22;15806;53.548;9.964;2022-12-10T04:03:04;8.30;99.90
28614;DHT22;15806;53.548;9.964;2022-12-10T04:04:44;8.10;99.90
28614;DHT22;15806;53.548;9.964;2022-12-10T04:06:25;8.00;99.90
28614;DHT22;15806;53.548;9.964;2022-12-10T04:08:05;7.90;99.90
28614;DHT22;15806;53.548;9.964;2022-12-10T04:09:46;7.80;99.90
28614;DHT22;15806;53.548;9.964;2022-12-10T04:11:27;7.70;99.90
28614;DHT22;15806;53.548;9.964;2022-12-10T04:13:07;7.50;99.90
28614;DHT22;15806;53.548;9.964;2022-12-10T04:14:48;7.40;99.90
28614;DHT22;15806;53.548;9.964;2022-12-10T04:16:29;7.40;99.90
28614;DHT22;15806;53.548;9.964;2022-12-10T04:18:10;7.20;99.90
28614;DHT22;15806;53.548;9.964;2022-12-10T04:19:51;7.00;99.90
28614;DHT22;15806;53.548;9.964;2022-12-10T04:21:33;6.90;99.90
28614;DHT22;15806;53.548;9.964;2022-12-10T04:23:14;6.80;99.90
28614;DHT22;15806;53.548;9.964;2022-12-10T04:24:54;6.70;99.90
28614;DHT22;15806;53.548;9.964;2022-12-10T04:26:35;6.50;99.90
28614;DHT22;15806;53.548;9.964;2022-12-10T04:28:15;6.40;99.90
28614;DHT22;15806;53.548;9.964;2022-12-10T04:29:57;6.20;99.90
28614;DHT22;15806;53.548;9.964;2022-12-10T04:31:38;6.00;99.90
28614;DHT22;15806;53.548;9.964;2022-12-10T04:33:18;5.90;99.90
28614;DHT22;15806;53.548;9.964;2022-12-10T04:34:59;5.80;99.90
28614;DHT22;15806;53.548;9.964;2022-12-10T04:36:39;5.70;99.90
28614;DHT22;15806;53.548;9.964;2022-12-10T04:38:20;5.70;99.90
28614;DHT22;15806;53.548;9.964;2022-12-10T04:40:01;5.60;99.90
28614;DHT22;15806;53.548;9.964;2022-12-10T04:41:43;5.20;99.90
28614;DHT22;15806;53.548;9.964;2022-12-10T04:43:24;5.00;99.90
28614;DHT22;15806;53.548;9.964;2022-12-10T04:45:05;4.90;99.90
28614;DHT22;15806;53.548;9.964;2022-12-10T04:46:46;4.70;99.90
28614;DHT22;15806;53.548;9.964;2022-12-10T04:48:27;4.70;99.90
28614;DHT22;15806;53.548;9.964;2022-12-10T04:50:08;4.70;99.90
28614;DHT22;15806;53.548;9.964;2022-12-10T04:51:48;4.70;99.90
28614;DHT22;15806;53.548;9.964;2022-12-10T04:53:29;4.80;99.90
28614;DHT22;15806;53.548;9.964;2022-12-10T04:55:09;4.80;99.90
28614;DHT22;15806;53.548;9.964;2022-12-10T04:56:50;4.80;99.90
28614;DHT22;15806;53.548;9.964;2022-12-10T04:58:31;4.80;99.90
28614;DHT22;15806;53.548;9.964;2022-12-10T05:00:12;4.70;99.90
28614;DHT22;15806;53.548;9.964;2022-12-10T05:01:53;4.60;99.90
28614;DHT22;15806;53.548;9.964;2022-12-10T05:03:34;4.60;99.90
28614;DHT22;15806;53.548;9.964;2022-12-10T05:05:15;4.60;99.90
28614;DHT22;15806;53.548;9.964;2022-12-10T05:06:55;4.50;99.90
28614;DHT22;15806;53.548;9.964;2022-12-10T05:08:37;4.40;99.90
28614;DHT22;15806;53.548;9.964;2022-12-10T05:10:18;4.30;99.90
28614;DHT22;15806;53.548;9.964;2022-12-10T05:11:59;4.40;99.90
28614;DHT22;15806;53.548;9.964;2022-12-10T05:13:40;4.30;99.90
28614;DHT22;15806;53.548;9.964;2022-12-10T05:15:20;4.30;99.90
28614;DHT22;15806;53.548;9.964;2022-12-10T05:17:01;4.20;99.90
28614;DHT22;15806;53.548;9.964;2022-12-10T05:18:41;4.10;99.90
28614;DHT22;15806;53.548;9.964;2022-12-10T05:20:22;4.00;99.90
28614;DHT22;15806;53.548;9.964;2022-12-10T05:22:03;3.80;99.90
28614;DHT22;15806;53.548;9.964;2022-12-10T05:23:45;3.70;99.90
28614;DHT22;15806;53.548;9.964;2022-12-10T05:25:26;3.80;99.90
28614;DHT22;15806;53.548;9.964;2022-12-10T05:27:07;3.70;99.90
28614;DHT22;15806;53.548;9.964;2022-12-10T05:28:56;3.70;99.90
28614;DHT22;15806;53.548;9.964;2022-12-10T05:30:36;3.80;99.90
28614;DHT22;15806;53.548;9.964;2022-12-10T05:32:17;3.80;99.90
28614;DHT22;15806;53.548;9.964;2022-12-10T05:33:58;3.70;99.90
28614;DHT22;15806;53.548;9.964;2022-12-10T05:35:38;3.60;99.90
28614;DHT22;15806;53.548;9.964;2022-12-10T05:37:19;3.50;99.90
28614;DHT22;15806;53.548;9.964;2022-12-10T05:38:59;3.30;99.90
28614;DHT22;15806;53.548;9.964;2022-12-10T05:40:40;3.30;99.90
28614;DHT22;15806;53.548;9.964;2022-12-10T05:42:20;3.40;99.90
28614;DHT22;15806;53.548;9.964;2022-12-10T05:44:01;3.40;99.90
28614;DHT22;15806;53.548;9.964;2022-12-10T05:45:41;3.30;99.90
28614;DHT22;15806;53.548;9.964;2022-12-10T05:47:22;3.10;99.90
28614;DHT22;15806;53.548;9.964;2022-12-10T05:49:04;3.10;99.90
28614;DHT22;15806;53.548;9.964;2022-12-10T05:50:44;3.10;99.90
28614;DHT22;15806;53.548;9.964;2022-12-10T05:52:25;3.00;99.90
28614;DHT22;15806;53.548;9.964;2022-12-10T05:54:06;3.00;99.90
28614;DHT22;15806;53.548;9.964;2022-12-10T05:55:47;3.00;99.90
28614;DHT22;15806;53.548;9.964;2022-12-10T05:57:27;2.90;99.90
28614;DHT22;15806;53.548;9.964;2022-12-10T05:59:09;2.70;99.90
28614;DHT22;15806;53.548;9.964;2022-12-10T06:00:49;2.70;99.90
28614;DHT22;15806;53.548;9.964;2022-12-10T06:02:32;2.70;99.90
28614;DHT22;15806;53.548;9.964;2022-12-10T06:04:13;2.60;99.90
28614;DHT22;15806;53.548;9.964;2022-12-10T06:05:54;2.60;99.90
28614;DHT22;15806;53.548;9.964;2022-12-10T06:07:34;2.70;99.90
28614;DHT22;15806;53.548;9.964;2022-12-10T06:09:15;2.70;99.90
28614;DHT22;15806;53.548;9.964;2022-12-10T06:10:55;2.90;99.90
28614;DHT22;15806;53.548;9.964;2022-12-10T06:12:36;3.10;99.90
28614;DHT22;15806;53.548;9.964;2022-12-10T06:14:17;3.20;99.90
28614;DHT22;15806;53.548;9.964;2022-12-10T06:15:57;3.20;99.90
28614;DHT22;15806;53.548;9.964;2022-12-10T06:17:38;3.20;99.90
28614;DHT22;15806;53.548;9.964;2022-12-10T06:19:18;3.20;99.90
28614;DHT22;15806;53.548;9.964;2022-12-10T06:20:59;3.30;99.90
28614;DHT22;15806;53.548;9.964;2022-12-10T06:22:42;3.40;99.90
28614;DHT22;15806;53.548;9.964;2022-12-10T06:24:23;3.50;99.90
28614;DHT22;15806;53.548;9.964;2022-12-10T06:26:11;3.50;99.90
28614;DHT22;15806;53.548;9.964;2022-12-10T06:27:52;3.50;99.90
28614;DHT22;15806;53.548;9.964;2022-12-10T06:29:33;3.40;99.90
28614;DHT22;15806;53.548;9.964;2022-12-10T06:31:14;3.40;99.90
28614;DHT22;15806;53.548;9.964;2022-12-10T06:32:55;3.40;99.90
28614;DHT22;15806;53.548;9.964;2022-12-10T06:34:35;3.30;99.90
28614;DHT22;15806;53.548;9.964;2022-12-10T06:36:17;3.20;99.90
28614;DHT22;15806;53.548;9.964;2022-12-10T06:37:57;3.20;99.90
28614;DHT22;15806;53.548;9.964;2022-12-10T06:39:38;3.30;99.90
28614;DHT22;15806;53.548;9.964;2022-12-10T06:41:18;3.30;99.90
28614;DHT22;15806;53.548;9.964;2022-12-10T06:42:59;3.40;99.90
28614;DHT22;15806;53.548;9.964;2022-12-10T06:44:39;3.30;99.90
28614;DHT22;15806;53.548;9.964;2022-12-10T06:46:20;3.20;99.90
28614;DHT22;15806;53.548;9.964;2022-12-10T06:48:01;3.20;99.90
28614;DHT22;15806;53.548;9.964;2022-12-10T06:49:41;3.20;99.90
28614;DHT22;15806;53.548;9.964;2022-12-10T06:51:22;3.20;99.90
28614;DHT22;15806;53.548;9.964;2022-12-10T06:53:03;3.30;99.90
28614;DHT22;15806;53.548;9.964;2022-12-10T06:54:44;3.20;99.90
28614;DHT22;15806;53.548;9.964;2022-12-10T06:56:24;3.20;99.90
28614;DHT22;15806;53.548;9.964;2022-12-10T06:58:05;3.30;99.90
28614;DHT22;15806;53.548;9.964;2022-12-10T06:59:45;3.40;99.90
28614;DHT22;15806;53.548;9.964;2022-12-10T07:01:26;3.50;99.90
28614;DHT22;15806;53.548;9.964;2022-12-10T07:03:06;3.10;99.90
28614;DHT22;15806;53.548;9.964;2022-12-10T07:04:47;2.90;99.90
28614;DHT22;15806;53.548;9.964;2022-12-10T07:06:27;2.90;99.90
28614;DHT22;15806;53.548;9.964;2022-12-10T07:08:08;2.90;99.90
28614;DHT22;15806;53.548;9.964;2022-12-10T07:09:48;2.90;99.90
28614;DHT22;15806;53.548;9.964;2022-12-10T07:11:29;2.80;99.90
28614;DHT22;15806;53.548;9.964;2022-12-10T07:13:10;2.80;99.90
28614;DHT22;15806;53.548;9.964;2022-12-10T07:14:50;2.80;99.90
28614;DHT22;15806;53.548;9.964;2022-12-10T07:16:32;2.90;99.90
28614;DHT22;15806;53.548;9.964;2022-12-10T07:18:13;2.90;99.90
28614;DHT22;15806;53.548;9.964;2022-12-10T07:19:54;3.10;99.90
28614;DHT22;15806;53.548;9.964;2022-12-10T07:21:35;3.10;99.90
28614;DHT22;15806;53.548;9.964;2022-12-10T07:23:17;3.10;99.90
28614;DHT22;15806;53.548;9.964;2022-12-10T07:24:58;3.10;99.90
28614;DHT22;15806;53.548;9.964;2022-12-10T07:26:40;3.00;99.90
28614;DHT22;15806;53.548;9.964;2022-12-10T07:28:21;3.10;99.90
28614;DHT22;15806;53.548;9.964;2022-12-10T07:30:02;3.20;99.90
28614;DHT22;15806;53.548;9.964;2022-12-10T07:31:43;3.30;99.90
28614;DHT22;15806;53.548;9.964;2022-12-10T07:33:24;3.20;99.90
28614;DHT22;15806;53.548;9.964;2022-12-10T07:35:04;3.10;99.90
28614;DHT22;15806;53.548;9.964;2022-12-10T07:36:45;3.10;99.90
28614;DHT22;15806;53.548;9.964;2022-12-10T07:38:26;3.00;99.90
28614;DHT22;15806;53.548;9.964;2022-12-10T07:40:06;3.10;99.90
28614;DHT22;15806;53.548;9.964;2022-12-10T07:41:50;3.30;99.90
28614;DHT22;15806;53.548;9.964;2022-12-10T07:43:36;3.30;99.90
28614;DHT22;15806;53.548;9.964;2022-12-10T07:45:18;3.30;99.90
28614;DHT22;15806;53.548;9.964;2022-12-10T07:46:58;3.20;99.90
28614;DHT22;15806;53.548;9.964;2022-12-10T07:48:40;3.20;99.90
28614;DHT22;15806;53.548;9.964;2022-12-10T07:50:20;3.30;99.90
28614;DHT22;15806;53.548;9.964;2022-12-10T07:52:01;3.20;99.90
28614;DHT22;15806;53.548;9.964;2022-12-10T07:53:42;3.10;99.90
28614;DHT22;15806;53.548;9.964;2022-12-10T07:55:23;3.10;99.90
28614;DHT22;15806;53.548;9.964;2022-12-10T07:57:04;3.10;99.90
28614;DHT22;15806;53.548;9.964;2022-12-10T07:58:45;3.10;99.90
28614;DHT22;15806;53.548;9.964;2022-12-10T08:00:25;2.80;99.90
28614;DHT22;15806;53.548;9.964;2022-12-10T08:02:08;2.80;99.90
28614;DHT22;15806;53.548;9.964;2022-12-10T08:03:49;2.70;99.90
28614;DHT22;15806;53.548;9.964;2022-12-10T08:05:30;2.80;99.90
28614;DHT22;15806;53.548;9.964;2022-12-10T08:07:10;3.00;99.90
28614;DHT22;15806;53.548;9.964;2022-12-10T08:08:51;3.10;99.90
28614;DHT22;15806;53.548;9.964;2022-12-10T08:10:35;3.10;99.90
28614;DHT22;15806;53.548;9.964;2022-12-10T08:12:16;3.10;99.90
28614;DHT22;15806;53.548;9.964;2022-12-10T08:13:56;3.10;99.90
28614;DHT22;15806;53.548;9.964;2022-12-10T08:15:37;2.80;99.90
28614;DHT22;15806;53.548;9.964;2022-12-10T08:17:17;2.90;99.90
28614;DHT22;15806;53.548;9.964;2022-12-10T08:18:59;2.80;99.90
28614;DHT22;15806;53.548;9.964;2022-12-10T08:20:40;2.70;99.90
28614;DHT22;15806;53.548;9.964;2022-12-10T08:22:21;2.80;99.90
28614;DHT22;15806;53.548;9.964;2022-12-10T08:24:01;2.50;99.90
28614;DHT22;15806;53.548;9.964;2022-12-10T08:25:42;2.30;99.90
28614;DHT22;15806;53.548;9.964;2022-12-10T08:27:22;2.10;99.90
28614;DHT22;15806;53.548;9.964;2022-12-10T08:29:03;2.20;99.90
28614;DHT22;15806;53.548;9.964;2022-12-10T08:30:47;2.30;99.90
28614;DHT22;15806;53.548;9.964;2022-12-10T08:32:28;2.50;99.90
28614;DHT22;15806;53.548;9.964;2022-12-10T08:34:14;2.60;99.90
28614;DHT22;15806;53.548;9.964;2022-12-10T08:35:58;2.60;99.90
28614;DHT22;15806;53.548;9.964;2022-12-10T08:37:42;2.70;99.90
28614;DHT22;15806;53.548;9.964;2022-12-10T08:39:22;2.80;99.90
28614;DHT22;15806;53.548;9.964;2022-12-10T08:41:14;2.90;99.90
28614;DHT22;15806;53.548;9.964;2022-12-10T08:42:55;2.90;99.90
28614;DHT22;15806;53.548;9.964;2022-12-10T08:44:36;3.00;99.90
28614;DHT22;15806;53.548;9.964;2022-12-10T08:46:16;3.00;99.90
28614;DHT22;15806;53.548;9.964;2022-12-10T08:47:57;2.90;99.90
28614;DHT22;15806;53.548;9.964;2022-12-10T08:49:37;2.90;99.90
28614;DHT22;15806;53.548;9.964;2022-12-10T08:51:18;3.10;99.90
28614;DHT22;15806;53.548;9.964;2022-12-10T08:52:59;2.80;99.90
28614;DHT22;15806;53.548;9.964;2022-12-10T08:54:40;2.70;99.90
28614;DHT22;15806;53.548;9.964;2022-12-10T08:56:21;2.70;99.90
28614;DHT22;15806;53.548;9.964;2022-12-10T08:58:01;2.60;99.90
28614;DHT22;15806;53.548;9.964;2022-12-10T08:59:42;2.70;99.90
28614;DHT22;15806;53.548;9.964;2022-12-10T09:01:22;2.70;99.90
28614;DHT22;15806;53.548;9.964;2022-12-10T09:03:03;2.70;99.90
28614;DHT22;15806;53.548;9.964;2022-12-10T09:04:44;2.90;99.90
28614;DHT22;15806;53.548;9.964;2022-12-10T09:06:24;3.00;99.90
28614;DHT22;15806;53.548;9.964;2022-12-10T09:08:05;3.00;99.90
28614;DHT22;15806;53.548;9.964;2022-12-10T09:09:46;2.90;99.90
28614;DHT22;15806;53.548;9.964;2022-12-10T09:11:30;3.00;99.90
28614;DHT22;15806;53.548;9.964;2022-12-10T09:13:11;3.10;99.90
28614;DHT22;15806;53.548;9.964;2022-12-10T09:14:52;3.20;99.90
28614;DHT22;15806;53.548;9.964;2022-12-10T09:16:35;3.10;99.90
28614;DHT22;15806;53.548;9.964;2022-12-10T09:18:16;3.10;99.90
28614;DHT22;15806;53.548;9.964;2022-12-10T09:19:56;3.10;99.90
28614;DHT22;15806;53.548;9.964;2022-12-10T09:21:38;3.10;99.90
28614;DHT22;15806;53.548;9.964;2022-12-10T09:23:19;3.20;99.90
28614;DHT22;15806;53.548;9.964;2022-12-10T09:24:59;3.30;99.90
28614;DHT22;15806;53.548;9.964;2022-12-10T09:26:40;3.30;99.90
28614;DHT22;15806;53.548;9.964;2022-12-10T09:28:20;3.40;99.90
28614;DHT22;15806;53.548;9.964;2022-12-10T09:30:01;3.30;99.90
28614;DHT22;15806;53.548;9.964;2022-12-10T09:31:41;3.30;99.90
28614;DHT22;15806;53.548;9.964;2022-12-10T09:33:22;3.40;99.90
28614;DHT22;15806;53.548;9.964;2022-12-10T09:35:03;3.30;99.90
28614;DHT22;15806;53.548;9.964;2022-12-10T09:36:44;3.00;99.90
28614;DHT22;15806;53.548;9.964;2022-12-10T09:38:25;2.90;99.90
28614;DHT22;15806;53.548;9.964;2022-12-10T09:40:06;3.20;99.90
28614;DHT22;15806;53.548;9.964;2022-12-10T09:42:40;3.40;99.90
28614;DHT22;15806;53.548;9.964;2022-12-10T09:44:41;3.20;99.90
28614;DHT22;15806;53.548;9.964;2022-12-10T09:51:10;2.90;99.90
28614;DHT22;15806;53.548;9.964;2022-12-10T09:52:52;2.80;99.90
28614;DHT22;15806;53.548;9.964;2022-12-10T09:54:38;2.70;99.90
28614;DHT22;15806;53.548;9.964;2022-12-10T09:56:23;2.60;99.90
28614;DHT22;15806;53.548;9.964;2022-12-10T09:58:05;2.60;99.90
28614;DHT22;15806;53.548;9.964;2022-12-10T09:59:50;2.40;99.90
28614;DHT22;15806;53.548;9.964;2022-12-10T10:01:33;2.70;99.90
28614;DHT22;15806;53.548;9.964;2022-12-10T10:03:15;2.80;99.90
28614;DHT22;15806;53.548;9.964;2022-12-10T10:06:46;2.60;99.90
28614;DHT22;15806;53.548;9.964;2022-12-10T10:08:33;2.50;99.90
28614;DHT22;15806;53.548;9.964;2022-12-10T10:10:30;2.70;99.90
28614;DHT22;15806;53.548;9.964;2022-12-10T10:12:13;3.10;99.90
28614;DHT22;15806;53.548;9.964;2022-12-10T10:14:06;3.10;99.90
28614;DHT22;15806;53.548;9.964;2022-12-10T10:15:47;2.90;99.90
28614;DHT22;15806;53.548;9.964;2022-12-10T10:17:35;2.90;99.90
28614;DHT22;15806;53.548;9.964;2022-12-10T10:19:20;2.90;99.90
28614;DHT22;15806;53.548;9.964;2022-12-10T10:21:01;2.80;99.90
28614;DHT22;15806;53.548;9.964;2022-12-10T10:22:44;2.60;99.90
28614;DHT22;15806;53.548;9.964;2022-12-10T10:24:32;2.50;99.90
28614;DHT22;15806;53.548;9.964;2022-12-10T10:26:14;2.30;99.90
28614;DHT22;15806;53.548;9.964;2022-12-10T10:27:55;2.30;99.90
28614;DHT22;15806;53.548;9.964;2022-12-10T10:29:36;2.20;99.90
28614;DHT22;15806;53.548;9.964;2022-12-10T10:31:22;2.10;99.90
28614;DHT22;15806;53.548;9.964;2022-12-10T10:33:09;2.20;99.90
28614;DHT22;15806;53.548;9.964;2022-12-10T10:34:56;2.10;99.90
28614;DHT22;15806;53.548;9.964;2022-12-10T10:36:38;2.10;99.90
28614;DHT22;15806;53.548;9.964;2022-12-10T10:38:27;2.20;99.90
28614;DHT22;15806;53.548;9.964;2022-12-10T10:40:32;2.20;99.90
28614;DHT22;15806;53.548;9.964;2022-12-10T10:44:18;2.10;99.90
28614;DHT22;15806;53.548;9.964;2022-12-10T10:46:06;2.00;99.90
28614;DHT22;15806;53.548;9.964;2022-12-10T10:49:49;2.10;99.90
28614;DHT22;15806;53.548;9.964;2022-12-10T10:51:29;2.20;99.90
28614;DHT22;15806;53.548;9.964;2022-12-10T10:53:43;2.10;99.90
28614;DHT22;15806;53.548;9.964;2022-12-10T10:55:31;2.00;99.90
28614;DHT22;15806;53.548;9.964;2022-12-10T10:57:14;2.10;99.90
28614;DHT22;15806;53.548;9.964;2022-12-10T10:59:00;2.00;99.90
28614;DHT22;15806;53.548;9.964;2022-12-10T11:00:41;2.00;99.90
28614;DHT22;15806;53.548;9.964;2022-12-10T11:02:33;1.80;99.90
28614;DHT22;15806;53.548;9.964;2022-12-10T11:04:16;1.80;99.90
28614;DHT22;15806;53.548;9.964;2022-12-10T11:05:58;1.70;99.90
28614;DHT22;15806;53.548;9.964;2022-12-10T11:07:40;1.70;99.90
28614;DHT22;15806;53.548;9.964;2022-12-10T11:09:21;1.80;99.90
28614;DHT22;15806;53.548;9.964;2022-12-10T11:11:10;1.70;99.90
28614;DHT22;15806;53.548;9.964;2022-12-10T11:13:07;1.90;99.90
28614;DHT22;15806;53.548;9.964;2022-12-10T11:14:58;1.90;99.90